Time;durP1;ratioP1;P1;durP2;ratioP2;P2;SDS_P1;SDS_P2;PMS_P1;PMS_P2;Temp;Humidity;BMP_temperature;BMP_pressure;BME280_temperature;BME280_humidity;BME280_pressure;Samples;Min_cycle;Max_cycle;Signal;HPM_P1;HPM_P2
2023/12/11 00:01:58;;;;;;;41.50;8.55;;;8.90;99.90;;;;;;5031973;28;20041;-75
2023/12/11 00:04:24;;;;;;;40.80;9.85;;;8.90;99.90;;;;;;5029573;28;20088;-75
2023/12/11 00:06:49;;;;;;;32.97;8.55;;;8.90;99.90;;;;;;5005934;28;20422;-75
2023/12/11 00:09:15;;;;;;;34.13;8.73;;;8.90;99.90;;;;;;5013507;28;20081;-75
2023/12/11 00:11:41;;;;;;;46.97;9.35;;;8.90;99.90;;;;;;5014606;28;20046;-75
2023/12/11 00:14:06;;;;;;;38.47;8.95;;;8.80;99.90;;;;;;5013706;28;20482;-75
2023/12/11 00:16:32;;;;;;;36.38;8.45;;;8.80;99.90;;;;;;5005925;28;20041;-75
2023/12/11 00:18:58;;;;;;;47.03;10.43;;;8.80;99.90;;;;;;4997901;28;20124;-75
2023/12/11 00:21:23;;;;;;;41.25;9.52;;;8.80;99.90;;;;;;5027599;28;20491;-76
2023/12/11 00:23:49;;;;;;;47.60;9.85;;;8.70;99.90;;;;;;5005206;28;20079;-75
2023/12/11 00:26:15;;;;;;;40.50;9.35;;;8.70;99.90;;;;;;4994001;28;20635;-76
2023/12/11 00:28:41;;;;;;;26.73;5.45;;;8.70;99.90;;;;;;5031555;28;20059;-76
2023/12/11 00:31:07;;;;;;;46.33;10.05;;;8.60;99.90;;;;;;5014340;28;20046;-75
2023/12/11 00:33:35;;;;;;;21.80;5.28;;;8.60;99.90;;;;;;5012237;28;20037;-75
2023/12/11 00:36:01;;;;;;;37.58;8.95;;;8.50;99.90;;;;;;5009587;28;20442;-76
2023/12/11 00:38:26;;;;;;;35.55;8.93;;;8.50;99.90;;;;;;4998462;28;20040;-75
2023/12/11 00:40:53;;;;;;;37.65;8.77;;;8.50;99.90;;;;;;5002970;28;20033;-75
2023/12/11 00:43:19;;;;;;;36.50;6.57;;;8.50;99.90;;;;;;5010895;28;20038;-75
2023/12/11 00:45:45;;;;;;;36.08;5.75;;;8.40;99.90;;;;;;5022675;28;20049;-75
2023/12/11 00:48:10;;;;;;;24.25;6.07;;;8.40;99.90;;;;;;5031709;28;20045;-75
2023/12/11 00:50:36;;;;;;;39.53;9.48;;;8.40;99.90;;;;;;5024558;28;20037;-75
2023/12/11 00:53:02;;;;;;;38.08;6.03;;;8.30;99.90;;;;;;5009775;28;20063;-75
2023/12/11 00:55:28;;;;;;;45.75;9.50;;;8.30;99.90;;;;;;5012374;28;20049;-75
2023/12/11 00:57:53;;;;;;;32.25;7.93;;;8.20;99.90;;;;;;5002403;28;20037;-75
2023/12/11 01:00:20;;;;;;;29.88;4.68;;;8.30;99.90;;;;;;5014358;28;20044;-76
2023/12/11 01:02:46;;;;;;;32.08;5.22;;;8.20;99.90;;;;;;4997027;28;20041;-75
2023/12/11 01:05:12;;;;;;;42.28;9.50;;;8.20;99.90;;;;;;5006651;28;20095;-75
2023/12/11 01:07:38;;;;;;;43.42;9.77;;;8.30;99.90;;;;;;5004293;28;20041;-75
2023/12/11 01:10:04;;;;;;;37.00;9.02;;;8.30;99.90;;;;;;5012708;28;20570;-75
2023/12/11 01:12:30;;;;;;;29.88;5.45;;;8.30;99.90;;;;;;5008354;28;20546;-75
2023/12/11 01:14:55;;;;;;;44.33;9.25;;;8.20;99.90;;;;;;5030235;28;20124;-76
2023/12/11 01:17:21;;;;;;;35.55;7.25;;;8.20;99.90;;;;;;5027832;28;20102;-75
2023/12/11 01:19:47;;;;;;;28.65;6.28;;;8.20;99.90;;;;;;5000752;28;20400;-75
2023/12/11 01:22:12;;;;;;;29.13;5.20;;;8.10;99.90;;;;;;5026455;28;20033;-75
2023/12/11 01:24:38;;;;;;;33.45;8.48;;;8.10;99.90;;;;;;4992196;28;20037;-76
2023/12/11 01:27:04;;;;;;;34.25;8.00;;;8.10;99.90;;;;;;5032282;28;20130;-76
2023/12/11 01:29:30;;;;;;;25.17;4.97;;;8.10;99.90;;;;;;4993786;28;20037;-76
2023/12/11 01:31:55;;;;;;;20.10;5.28;;;8.10;99.90;;;;;;5011624;28;20049;-76
2023/12/11 01:34:21;;;;;;;17.63;4.03;;;8.10;99.90;;;;;;5024277;28;20041;-76
2023/12/11 01:36:47;;;;;;;30.75;5.80;;;8.10;99.90;;;;;;5014921;28;20514;-75
2023/12/11 01:39:13;;;;;;;25.73;4.82;;;8.10;99.90;;;;;;4989772;28;20045;-75
2023/12/11 01:41:38;;;;;;;24.50;5.10;;;8.20;99.90;;;;;;4987649;28;20038;-76
2023/12/11 01:44:04;;;;;;;35.92;8.45;;;8.20;99.90;;;;;;5010440;28;20407;-76
2023/12/11 01:46:31;;;;;;;36.63;5.13;;;8.30;99.90;;;;;;5029934;28;20065;-76
2023/12/11 01:48:57;;;;;;;24.92;5.50;;;8.30;99.90;;;;;;5014521;28;20045;-75
2023/12/11 01:51:23;;;;;;;32.38;5.38;;;8.30;99.90;;;;;;5030606;28;20064;-76
2023/12/11 01:53:51;;;;;;;42.55;8.25;;;8.30;99.90;;;;;;5029962;28;20667;-76
2023/12/11 01:56:18;;;;;;;35.15;5.97;;;8.30;99.90;;;;;;5029582;28;20392;-76
2023/12/11 01:58:45;;;;;;;44.40;9.57;;;8.40;99.90;;;;;;5010007;28;20042;-76
2023/12/11 02:01:13;;;;;;;25.98;7.15;;;8.40;99.90;;;;;;5008498;28;20034;-76
2023/12/11 02:03:40;;;;;;;27.70;5.47;;;8.30;99.90;;;;;;5008882;28;20046;-76
2023/12/11 02:06:05;;;;;;;24.35;4.65;;;8.30;99.90;;;;;;5022218;28;20462;-76
2023/12/11 02:08:32;;;;;;;33.40;6.78;;;8.40;99.90;;;;;;5002020;28;20107;-76
2023/12/11 02:10:58;;;;;;;22.08;4.60;;;8.40;99.90;;;;;;5029305;28;20037;-76
2023/12/11 02:13:24;;;;;;;43.67;9.55;;;8.40;99.90;;;;;;5011852;28;20037;-76
2023/12/11 02:15:51;;;;;;;21.60;4.53;;;8.50;99.90;;;;;;5030024;28;20053;-75
2023/12/11 02:18:17;;;;;;;19.02;4.32;;;8.40;99.90;;;;;;5030202;28;20095;-76
2023/12/11 02:20:44;;;;;;;40.63;10.02;;;8.40;99.90;;;;;;5021370;28;20041;-76
2023/12/11 02:23:34;;;;;;;26.77;5.97;;;8.40;99.90;;;;;;5008682;28;20037;-76
2023/12/11 02:26:10;;;;;;;28.90;6.20;;;8.40;99.90;;;;;;5023625;28;20372;-76
2023/12/11 02:28:36;;;;;;;36.90;10.80;;;8.50;99.90;;;;;;5013215;28;20414;-76
2023/12/11 02:31:02;;;;;;;40.22;10.25;;;8.50;99.90;;;;;;5022113;28;20041;-76
2023/12/11 02:33:28;;;;;;;29.98;6.05;;;8.50;99.90;;;;;;4991416;28;20560;-76
2023/12/11 02:35:53;;;;;;;46.05;10.15;;;8.50;99.90;;;;;;5013136;28;20137;-76
2023/12/11 02:38:19;;;;;;;41.35;10.57;;;8.50;99.90;;;;;;5012175;28;20060;-76
2023/12/11 02:40:45;;;;;;;48.50;11.18;;;8.50;99.90;;;;;;5002096;28;20043;-75
2023/12/11 02:43:10;;;;;;;36.60;6.85;;;8.50;99.90;;;;;;5015194;28;20077;-76
2023/12/11 02:45:36;;;;;;;23.55;6.05;;;8.40;99.90;;;;;;5002234;28;20041;-76
2023/12/11 02:48:02;;;;;;;26.63;5.38;;;8.50;99.90;;;;;;5010429;28;20044;-76
2023/12/11 02:50:34;;;;;;;43.47;11.40;;;8.50;99.90;;;;;;4997696;28;20621;-76
2023/12/11 02:53:01;;;;;;;43.20;10.52;;;8.50;99.90;;;;;;5022801;28;20117;-76
2023/12/11 02:55:28;;;;;;;41.03;11.50;;;8.60;99.90;;;;;;4978993;28;20077;-75
2023/12/11 02:58:03;;;;;;;28.63;5.57;;;8.60;99.90;;;;;;5005394;28;20061;-76
2023/12/11 03:00:30;;;;;;;46.40;11.18;;;8.60;99.90;;;;;;5002829;28;20125;-76
2023/12/11 03:02:56;;;;;;;51.53;11.32;;;8.60;99.90;;;;;;4982010;28;20026;-76
2023/12/11 03:05:22;;;;;;;48.97;10.73;;;8.60;99.90;;;;;;5012839;28;20522;-76
2023/12/11 03:07:48;;;;;;;41.50;11.45;;;8.70;99.90;;;;;;5023113;28;20045;-76
2023/12/11 03:10:14;;;;;;;52.90;11.18;;;8.70;99.90;;;;;;4997042;28;20037;-76
2023/12/11 03:12:40;;;;;;;48.80;10.32;;;8.70;99.90;;;;;;5006169;28;20041;-76
2023/12/11 03:15:09;;;;;;;54.08;11.75;;;8.70;99.90;;;;;;5014742;28;20037;-76
2023/12/11 03:17:35;;;;;;;46.05;10.77;;;8.70;99.90;;;;;;4998923;28;20034;-76
2023/12/11 03:20:01;;;;;;;55.50;11.45;;;8.80;99.90;;;;;;5005749;28;20037;-76
2023/12/11 03:22:27;;;;;;;50.40;10.57;;;8.80;99.90;;;;;;4987114;28;20185;-76
2023/12/11 03:24:54;;;;;;;48.78;12.40;;;8.80;99.90;;;;;;5004592;28;20041;-76
2023/12/11 03:27:20;;;;;;;31.77;4.82;;;8.80;99.90;;;;;;5011859;28;20045;-76
2023/12/11 03:29:47;;;;;;;54.55;12.30;;;8.70;99.90;;;;;;4996503;28;20053;-76
2023/12/11 03:32:12;;;;;;;58.90;12.55;;;8.80;99.90;;;;;;5016727;28;20567;-76
2023/12/11 03:34:38;;;;;;;47.20;11.18;;;8.80;99.90;;;;;;5010015;28;20135;-76
2023/12/11 03:37:04;;;;;;;41.17;10.30;;;8.80;99.90;;;;;;5017922;28;20398;-76
2023/12/11 03:39:30;;;;;;;44.55;5.82;;;8.90;99.90;;;;;;4989196;28;20041;-76
2023/12/11 03:41:56;;;;;;;51.78;11.55;;;8.90;99.90;;;;;;5013033;28;20737;-76
2023/12/11 03:44:22;;;;;;;54.50;12.63;;;8.90;99.90;;;;;;5021582;28;20029;-76
2023/12/11 03:46:47;;;;;;;46.38;11.00;;;8.90;99.90;;;;;;5002097;28;20037;-76
2023/12/11 03:49:17;;;;;;;41.22;9.77;;;8.90;99.90;;;;;;5005875;28;20038;-76
2023/12/11 03:51:43;;;;;;;40.92;11.13;;;8.90;99.90;;;;;;5012525;28;20050;-76
2023/12/11 03:54:09;;;;;;;48.53;11.25;;;8.90;99.90;;;;;;5004662;28;20464;-76
2023/12/11 03:56:35;;;;;;;46.53;10.43;;;8.80;99.90;;;;;;5004060;28;20128;-76
2023/12/11 03:59:00;;;;;;;39.63;10.45;;;8.80;99.90;;;;;;5003347;28;20471;-76
2023/12/11 04:01:26;;;;;;;52.42;11.13;;;8.80;99.90;;;;;;4999355;28;20117;-76
2023/12/11 04:03:51;;;;;;;55.20;11.82;;;8.70;99.90;;;;;;5017699;28;20406;-76
2023/12/11 04:06:17;;;;;;;46.83;12.80;;;8.70;99.90;;;;;;4988255;28;20066;-76
2023/12/11 04:08:43;;;;;;;51.05;11.80;;;8.70;99.90;;;;;;5016483;28;20046;-76
2023/12/11 04:11:09;;;;;;;52.03;12.80;;;8.70;99.90;;;;;;5001683;28;20045;-76
2023/12/11 04:13:35;;;;;;;38.38;7.32;;;8.70;99.90;;;;;;4997336;28;20050;-76
2023/12/11 04:16:03;;;;;;;50.83;11.88;;;8.70;99.90;;;;;;5000688;28;20117;-76
2023/12/11 04:18:30;;;;;;;47.88;11.10;;;8.70;99.90;;;;;;4992876;28;20072;-76
2023/12/11 04:20:57;;;;;;;26.98;5.68;;;8.70;99.90;;;;;;5020288;28;20033;-76
2023/12/11 04:23:22;;;;;;;31.55;6.88;;;8.70;99.90;;;;;;5013650;28;20100;-76
2023/12/11 04:25:48;;;;;;;51.30;10.65;;;8.70;99.90;;;;;;5022596;28;20461;-76
2023/12/11 04:28:14;;;;;;;27.88;5.95;;;8.70;99.90;;;;;;5002980;28;20056;-76
2023/12/11 04:30:40;;;;;;;42.05;10.15;;;8.70;99.90;;;;;;4994104;28;20045;-76
2023/12/11 04:33:05;;;;;;;38.35;9.38;;;8.70;99.90;;;;;;5020083;28;20646;-76
2023/12/11 04:35:31;;;;;;;39.78;9.63;;;8.70;99.90;;;;;;5024502;28;20034;-76
2023/12/11 04:37:57;;;;;;;38.00;9.23;;;8.70;99.90;;;;;;5004063;28;20391;-76
2023/12/11 04:40:22;;;;;;;25.27;5.65;;;8.70;99.90;;;;;;5028159;28;20037;-76
2023/12/11 04:42:48;;;;;;;30.02;8.70;;;8.70;99.90;;;;;;5003761;28;20048;-76
2023/12/11 04:45:14;;;;;;;40.78;7.95;;;8.70;99.90;;;;;;4976638;28;20437;-76
2023/12/11 04:47:39;;;;;;;37.28;8.77;;;8.70;99.90;;;;;;5014655;28;20045;-76
2023/12/11 04:50:05;;;;;;;34.42;8.52;;;8.70;99.90;;;;;;5018663;28;20447;-76
2023/12/11 04:52:31;;;;;;;32.83;9.20;;;8.80;99.90;;;;;;5001987;28;20038;-76
2023/12/11 04:54:57;;;;;;;36.15;9.82;;;8.80;99.90;;;;;;5023805;28;20058;-76
2023/12/11 04:57:23;;;;;;;35.97;8.48;;;8.80;99.90;;;;;;5025100;28;20520;-76
2023/12/11 04:59:49;;;;;;;33.55;8.48;;;8.80;99.90;;;;;;5001799;28;20042;-76
2023/12/11 05:02:15;;;;;;;34.13;9.00;;;8.80;99.90;;;;;;5010866;28;20048;-76
2023/12/11 05:04:40;;;;;;;30.92;4.88;;;8.80;99.90;;;;;;5016315;28;20038;-76
2023/12/11 05:07:06;;;;;;;31.55;8.57;;;8.80;99.90;;;;;;5003344;28;20111;-76
2023/12/11 05:09:32;;;;;;;49.40;9.15;;;8.80;99.90;;;;;;5021927;28;20034;-76
2023/12/11 05:11:57;;;;;;;33.95;7.30;;;8.80;99.90;;;;;;5016450;28;20036;-76
2023/12/11 05:14:23;;;;;;;38.22;9.23;;;8.80;99.90;;;;;;5012568;28;20041;-76
2023/12/11 05:16:49;;;;;;;35.80;9.23;;;8.80;99.90;;;;;;5016255;28;20037;-76
2023/12/11 05:19:14;;;;;;;40.03;8.40;;;8.80;99.90;;;;;;5003370;28;20487;-76
2023/12/11 05:21:44;;;;;;;39.03;8.95;;;8.80;99.90;;;;;;5005041;28;20038;-76
2023/12/11 05:24:14;;;;;;;21.23;4.30;;;8.80;99.90;;;;;;5019194;28;20064;-76
2023/12/11 05:26:40;;;;;;;30.35;5.03;;;8.80;99.90;;;;;;5014331;28;20049;-76
2023/12/11 05:29:06;;;;;;;42.08;8.75;;;8.70;99.90;;;;;;5013110;28;20038;-76
2023/12/11 05:31:32;;;;;;;39.08;8.18;;;8.70;99.90;;;;;;4986457;28;20636;-76
2023/12/11 05:33:58;;;;;;;34.33;8.82;;;8.70;99.90;;;;;;5005762;28;20088;-76
2023/12/11 05:36:23;;;;;;;21.50;4.22;;;8.80;99.90;;;;;;5013313;28;20046;-76
2023/12/11 05:38:49;;;;;;;40.55;8.68;;;8.80;99.90;;;;;;5006900;28;20117;-76
2023/12/11 05:41:15;;;;;;;38.53;9.07;;;8.70;99.90;;;;;;5000432;28;20073;-76
2023/12/11 05:43:41;;;;;;;44.33;9.05;;;8.70;99.90;;;;;;5018659;28;20679;-76
2023/12/11 05:46:07;;;;;;;23.23;5.07;;;8.80;99.90;;;;;;5002947;28;20045;-76
2023/12/11 05:48:33;;;;;;;30.48;7.90;;;8.80;99.90;;;;;;4997760;28;20041;-76
2023/12/11 05:50:59;;;;;;;41.63;9.05;;;8.90;99.90;;;;;;5004279;28;20426;-76
2023/12/11 05:53:24;;;;;;;33.80;8.65;;;8.90;99.90;;;;;;5023152;28;20057;-76
2023/12/11 05:55:50;;;;;;;21.85;4.72;;;8.80;99.90;;;;;;5022468;28;20088;-76
2023/12/11 05:58:16;;;;;;;16.42;3.25;;;8.80;99.90;;;;;;4999060;28;20033;-76
2023/12/11 06:00:42;;;;;;;33.20;8.13;;;8.80;99.90;;;;;;5017756;28;20033;-76
2023/12/11 06:03:07;;;;;;;29.42;8.20;;;8.70;99.90;;;;;;4997261;28;20034;-76
2023/12/11 06:05:33;;;;;;;35.75;8.43;;;8.60;99.90;;;;;;4989502;28;20042;-76
2023/12/11 06:07:59;;;;;;;43.83;8.77;;;8.60;99.90;;;;;;5006549;28;20056;-76
2023/12/11 06:10:25;;;;;;;34.65;8.27;;;8.60;99.90;;;;;;5008887;28;20068;-76
2023/12/11 06:12:51;;;;;;;33.67;8.27;;;8.60;99.90;;;;;;5010635;28;20053;-76
2023/12/11 06:15:17;;;;;;;28.15;4.97;;;8.60;99.90;;;;;;5002852;28;20499;-76
2023/12/11 06:17:42;;;;;;;42.20;8.13;;;8.60;99.90;;;;;;4999711;28;20037;-76
2023/12/11 06:20:09;;;;;;;34.38;7.85;;;8.60;99.90;;;;;;4985737;28;20458;-76
2023/12/11 06:22:35;;;;;;;26.52;7.03;;;8.60;99.90;;;;;;5012452;28;20062;-76
2023/12/11 06:25:02;;;;;;;28.52;7.05;;;8.60;99.90;;;;;;4982867;28;20049;-76
2023/12/11 06:27:28;;;;;;;28.98;7.03;;;8.70;99.90;;;;;;4998502;28;20037;-76
2023/12/11 06:29:54;;;;;;;15.10;3.22;;;8.60;99.90;;;;;;5003962;28;20578;-76
2023/12/11 06:32:20;;;;;;;22.27;5.75;;;8.70;99.90;;;;;;4998749;28;20099;-76
2023/12/11 06:34:45;;;;;;;24.40;6.32;;;8.70;99.90;;;;;;5000758;28;20045;-76
2023/12/11 06:37:11;;;;;;;27.55;5.97;;;8.70;99.90;;;;;;5003250;28;20076;-76
2023/12/11 06:39:37;;;;;;;23.83;5.88;;;8.70;99.90;;;;;;5006710;28;20385;-76
2023/12/11 06:42:03;;;;;;;25.27;7.03;;;8.70;99.90;;;;;;5005055;28;20040;-76
2023/12/11 06:44:29;;;;;;;32.35;7.10;;;8.70;99.90;;;;;;4982850;28;20741;-76
2023/12/11 06:46:54;;;;;;;32.67;7.35;;;8.70;99.90;;;;;;5020241;28;20053;-76
2023/12/11 06:49:21;;;;;;;28.85;8.07;;;8.70;99.90;;;;;;5024326;28;20450;-76
2023/12/11 06:51:47;;;;;;;38.38;7.90;;;8.70;99.90;;;;;;5015297;28;20030;-76
2023/12/11 06:54:12;;;;;;;33.50;7.93;;;8.70;99.90;;;;;;4987516;28;20491;-76
2023/12/11 06:56:38;;;;;;;37.28;8.60;;;8.70;99.90;;;;;;5000538;28;20551;-76
2023/12/11 06:59:04;;;;;;;29.45;4.93;;;8.70;99.90;;;;;;5007261;28;20057;-76
2023/12/11 07:01:31;;;;;;;33.22;8.18;;;8.70;99.90;;;;;;4990712;28;20057;-76
2023/12/11 07:03:57;;;;;;;36.65;9.38;;;8.70;99.90;;;;;;5023805;28;20045;-76
2023/12/11 07:06:23;;;;;;;27.67;7.75;;;8.80;99.90;;;;;;5000473;28;20054;-75
2023/12/11 07:08:49;;;;;;;37.45;8.98;;;8.70;99.90;;;;;;5010207;28;20121;-76
2023/12/11 07:11:15;;;;;;;40.75;8.73;;;8.80;99.90;;;;;;5007722;28;20351;-76
2023/12/11 07:13:44;;;;;;;37.33;9.15;;;8.80;99.90;;;;;;5011745;28;20060;-76
2023/12/11 07:16:11;;;;;;;20.73;4.25;;;8.80;99.90;;;;;;4996642;28;20443;-75
2023/12/11 07:18:41;;;;;;;21.52;4.38;;;8.80;99.90;;;;;;4996031;28;20045;-75
2023/12/11 07:21:08;;;;;;;18.05;5.15;;;8.70;99.90;;;;;;4997534;28;20052;-75
2023/12/11 07:23:34;;;;;;;34.17;8.60;;;8.70;99.90;;;;;;4993075;28;20395;-76
2023/12/11 07:26:00;;;;;;;41.30;8.25;;;8.70;99.90;;;;;;4999929;28;20104;-75
2023/12/11 07:28:25;;;;;;;35.58;8.90;;;8.70;99.90;;;;;;4996270;28;20826;-75
2023/12/11 07:30:51;;;;;;;32.85;8.57;;;8.70;99.90;;;;;;4993896;28;20042;-75
2023/12/11 07:33:17;;;;;;;41.40;8.82;;;8.70;99.90;;;;;;4977319;28;20056;-77
2023/12/11 07:35:43;;;;;;;31.92;8.65;;;8.70;99.90;;;;;;5013984;28;20047;-76
2023/12/11 07:38:08;;;;;;;31.88;7.95;;;8.70;99.90;;;;;;4995312;28;20057;-75
2023/12/11 07:40:34;;;;;;;43.38;8.73;;;8.70;99.90;;;;;;5011658;28;20038;-76
2023/12/11 07:43:00;;;;;;;34.33;8.38;;;8.70;99.90;;;;;;4994262;28;20057;-76
2023/12/11 07:45:25;;;;;;;26.52;4.03;;;8.70;99.90;;;;;;5009789;28;20049;-77
2023/12/11 07:47:51;;;;;;;22.98;5.00;;;8.70;99.90;;;;;;4992248;28;20046;-76
2023/12/11 07:50:17;;;;;;;36.72;8.43;;;8.60;99.90;;;;;;4980157;28;20037;-76
2023/12/11 07:52:42;;;;;;;19.52;4.38;;;8.60;99.90;;;;;;4991527;28;20342;-76
2023/12/11 07:55:08;;;;;;;25.23;4.97;;;8.60;99.90;;;;;;4980820;28;20136;-80
2023/12/11 07:57:34;;;;;;;22.40;4.18;;;8.50;99.90;;;;;;4971189;28;20423;-79
2023/12/11 08:00:00;;;;;;;25.88;5.00;;;8.50;99.90;;;;;;4976975;28;20042;-79
2023/12/11 08:02:26;;;;;;;38.40;7.78;;;8.40;99.90;;;;;;4998242;28;20033;-78
2023/12/11 08:04:51;;;;;;;32.35;4.53;;;8.50;99.90;;;;;;4998796;28;20034;-78
2023/12/11 08:07:18;;;;;;;41.00;8.13;;;8.50;99.90;;;;;;5010937;28;20065;-77
2023/12/11 08:09:44;;;;;;;36.97;7.75;;;8.40;99.90;;;;;;4994742;28;20873;-79
2023/12/11 08:12:10;;;;;;;21.83;4.90;;;8.40;99.90;;;;;;5000053;28;20098;-76
2023/12/11 08:14:37;;;;;;;29.45;6.95;;;8.40;99.90;;;;;;5005764;28;20037;-76
2023/12/11 08:17:04;;;;;;;29.67;6.65;;;8.50;99.90;;;;;;4999032;28;20037;-77
2023/12/11 08:19:32;;;;;;;27.02;6.53;;;8.50;99.90;;;;;;5013001;28;20048;-78
2023/12/11 08:21:58;;;;;;;19.85;3.83;;;8.50;99.90;;;;;;5032330;28;20084;-77
2023/12/11 08:24:24;;;;;;;17.63;3.28;;;8.50;99.90;;;;;;5013168;28;20069;-77
2023/12/11 08:26:50;;;;;;;13.15;2.92;;;8.50;99.90;;;;;;5003891;28;20588;-77
2023/12/11 08:29:16;;;;;;;24.45;6.55;;;8.50;99.90;;;;;;5023080;28;20049;-76
2023/12/11 08:31:43;;;;;;;11.38;2.72;;;8.50;99.90;;;;;;5022538;28;20049;-76
2023/12/11 08:34:09;;;;;;;20.70;3.33;;;8.50;99.90;;;;;;5014938;28;20033;-76
2023/12/11 08:36:34;;;;;;;21.70;5.68;;;8.50;99.90;;;;;;5015078;28;20134;-76
2023/12/11 08:39:00;;;;;;;20.83;5.10;;;8.50;99.90;;;;;;5012539;28;20507;-76
2023/12/11 08:41:27;;;;;;;17.23;3.30;;;8.50;99.90;;;;;;5002688;28;20052;-76
2023/12/11 08:43:53;;;;;;;16.45;5.22;;;8.50;99.90;;;;;;4998885;28;20527;-76
2023/12/11 08:46:18;;;;;;;15.13;3.03;;;8.50;99.90;;;;;;4998784;28;20044;-76
2023/12/11 08:48:44;;;;;;;6.93;2.67;;;8.40;99.90;;;;;;5031509;28;20483;-76
2023/12/11 08:51:10;;;;;;;17.90;6.38;;;8.50;99.90;;;;;;5007414;28;20038;-76
2023/12/11 08:53:36;;;;;;;16.35;5.78;;;8.40;99.90;;;;;;5012263;28;20061;-75
2023/12/11 08:56:02;;;;;;;14.35;2.63;;;8.40;99.90;;;;;;5001310;28;20061;-76
2023/12/11 08:58:28;;;;;;;16.50;5.60;;;8.50;99.90;;;;;;5020043;28;20037;-76
2023/12/11 09:00:53;;;;;;;19.20;6.30;;;8.40;99.90;;;;;;5014804;28;20037;-76
2023/12/11 09:03:21;;;;;;;18.58;5.85;;;8.50;99.90;;;;;;5014316;28;20045;-76
2023/12/11 09:05:46;;;;;;;8.52;2.60;;;8.40;99.90;;;;;;5023185;28;20050;-76
2023/12/11 09:08:12;;;;;;;9.63;2.55;;;8.40;99.90;;;;;;5028182;28;20064;-76
2023/12/11 09:10:38;;;;;;;11.48;2.90;;;8.50;99.90;;;;;;4997071;28;20107;-76
2023/12/11 09:13:04;;;;;;;14.57;4.88;;;8.40;99.90;;;;;;5003939;28;20041;-76
2023/12/11 09:15:31;;;;;;;13.43;4.35;;;8.40;99.90;;;;;;5030643;28;20050;-77
2023/12/11 09:17:56;;;;;;;10.95;2.75;;;8.40;99.90;;;;;;5032139;28;20038;-76
2023/12/11 09:20:22;;;;;;;7.50;2.30;;;8.40;99.90;;;;;;5030252;28;20048;-77
2023/12/11 09:22:48;;;;;;;9.35;3.95;;;8.40;99.90;;;;;;5030280;28;20068;-76
2023/12/11 09:25:14;;;;;;;10.90;4.35;;;8.40;99.90;;;;;;5010600;28;20080;-77
2023/12/11 09:27:39;;;;;;;6.05;2.28;;;8.40;99.90;;;;;;5029790;28;20104;-76
2023/12/11 09:30:09;;;;;;;10.98;3.80;;;8.50;99.90;;;;;;5013501;28;20529;-76
2023/12/11 09:32:35;;;;;;;9.80;4.03;;;8.50;99.90;;;;;;5030658;28;20111;-76
2023/12/11 09:35:01;;;;;;;12.70;4.72;;;8.50;99.90;;;;;;5028148;28;20034;-76
2023/12/11 09:37:26;;;;;;;15.52;4.40;;;8.50;99.90;;;;;;5011556;28;20044;-76
2023/12/11 09:39:52;;;;;;;5.00;2.08;;;8.50;99.90;;;;;;5002830;28;20037;-76
2023/12/11 09:42:18;;;;;;;13.90;3.60;;;8.60;99.90;;;;;;4991038;28;20070;-75
2023/12/11 09:44:45;;;;;;;10.43;3.45;;;8.60;99.90;;;;;;5029811;28;20095;-76
2023/12/11 09:47:23;;;;;;;15.63;6.10;;;8.60;99.90;;;;;;5011719;28;20041;-76
2023/12/11 09:49:49;;;;;;;19.95;6.32;;;8.60;99.90;;;;;;5013442;28;20042;-76
2023/12/11 09:52:14;;;;;;;23.77;6.90;;;8.70;99.90;;;;;;5012537;28;20041;-75
2023/12/11 09:54:41;;;;;;;18.42;6.75;;;8.70;99.90;;;;;;5018477;28;20050;-76
2023/12/11 09:57:15;;;;;;;15.82;4.30;;;8.80;99.90;;;;;;5009605;28;20080;-75
2023/12/11 09:59:42;;;;;;;18.83;6.40;;;8.80;99.90;;;;;;5002520;28;20091;-76
2023/12/11 10:02:15;;;;;;;21.58;7.00;;;8.90;99.90;;;;;;5012825;28;20066;-76
2023/12/11 10:05:07;;;;;;;20.52;6.63;;;8.90;99.90;;;;;;5030644;28;20122;-75
2023/12/11 10:07:37;;;;;;;20.20;6.30;;;8.90;99.90;;;;;;5014098;28;20403;-76
2023/12/11 10:10:33;;;;;;;13.45;5.63;;;8.90;99.90;;;;;;5005832;28;20099;-76
2023/12/11 10:13:00;;;;;;;25.80;6.50;;;8.90;99.90;;;;;;5009972;28;20045;-76
2023/12/11 10:15:31;;;;;;;16.13;5.25;;;8.90;99.90;;;;;;5009830;28;20052;-76
2023/12/11 10:18:06;;;;;;;21.58;5.90;;;8.90;99.90;;;;;;4995310;28;20095;-76
2023/12/11 10:20:33;;;;;;;18.02;5.25;;;8.90;99.90;;;;;;5015965;28;20395;-76
2023/12/11 10:22:58;;;;;;;8.48;2.60;;;8.90;99.90;;;;;;5012421;28;20045;-76
2023/12/11 10:25:26;;;;;;;15.50;4.60;;;8.90;99.90;;;;;;4991930;28;20051;-76
2023/12/11 10:28:23;;;;;;;14.10;4.47;;;8.80;99.90;;;;;;4981038;28;20049;-76
2023/12/11 10:30:50;;;;;;;16.15;4.70;;;8.80;99.90;;;;;;5011243;28;20040;-76
2023/12/11 10:33:16;;;;;;;14.40;4.55;;;8.90;99.90;;;;;;4996077;28;20041;-76
2023/12/11 10:35:42;;;;;;;21.83;5.75;;;8.80;99.90;;;;;;4996269;28;20103;-76
2023/12/11 10:38:08;;;;;;;17.63;5.50;;;8.80;99.90;;;;;;5013478;28;20042;-75
2023/12/11 10:40:41;;;;;;;13.80;2.58;;;8.90;99.90;;;;;;4980850;28;20064;-75
2023/12/11 10:43:08;;;;;;;17.52;5.22;;;8.80;99.90;;;;;;4997713;28;20245;-75
2023/12/11 10:45:34;;;;;;;18.08;5.80;;;8.80;99.90;;;;;;4996108;28;20499;-75
2023/12/11 10:48:01;;;;;;;16.65;4.97;;;8.90;99.90;;;;;;4996291;28;20041;-75
2023/12/11 10:50:27;;;;;;;19.02;4.57;;;8.90;99.90;;;;;;4996000;28;20115;-75
2023/12/11 10:52:53;;;;;;;22.13;7.03;;;8.90;99.90;;;;;;4979445;28;20045;-75
2023/12/11 10:55:19;;;;;;;23.75;8.55;;;9.00;99.90;;;;;;4995654;28;20100;-75
2023/12/11 10:57:45;;;;;;;11.18;4.03;;;8.90;99.90;;;;;;5013585;28;20037;-75
2023/12/11 11:00:14;;;;;;;19.98;5.63;;;8.90;99.90;;;;;;4995914;28;20071;-76
2023/12/11 11:02:44;;;;;;;21.23;5.22;;;9.00;99.90;;;;;;4981822;28;20448;-76
2023/12/11 11:05:14;;;;;;;19.33;4.45;;;9.00;99.90;;;;;;5008557;28;20514;-75
2023/12/11 11:07:55;;;;;;;19.02;4.63;;;9.00;99.90;;;;;;4997133;28;20044;-76
2023/12/11 11:10:33;;;;;;;17.13;5.22;;;9.00;99.90;;;;;;5013161;28;20053;-76
2023/12/11 11:13:21;;;;;;;13.15;4.38;;;9.10;99.90;;;;;;5014134;28;20507;-75
2023/12/11 11:15:53;;;;;;;19.98;5.28;;;9.10;99.90;;;;;;4993922;28;20033;-76
2023/12/11 11:18:18;;;;;;;17.83;4.78;;;9.10;99.90;;;;;;4996321;28;20033;-75
2023/12/11 11:21:13;;;;;;;22.50;6.07;;;9.10;99.90;;;;;;4997715;28;20048;-75
2023/12/11 11:23:45;;;;;;;23.02;5.53;;;9.10;99.90;;;;;;4993497;28;20034;-75
2023/12/11 11:26:32;;;;;;;23.02;5.00;;;9.00;99.90;;;;;;5003034;28;20504;-79
2023/12/11 11:28:57;;;;;;;16.65;3.55;;;8.90;99.90;;;;;;5007382;28;20573;-76
2023/12/11 11:31:50;;;;;;;12.43;4.15;;;8.90;99.90;;;;;;5027027;28;20045;-76
2023/12/11 11:34:42;;;;;;;17.85;4.65;;;8.80;99.90;;;;;;5016114;28;20029;-77
2023/12/11 11:37:14;;;;;;;24.35;6.97;;;8.80;99.90;;;;;;5016751;28;20119;-77
2023/12/11 11:39:59;;;;;;;20.30;5.43;;;8.80;99.90;;;;;;5033016;28;20048;-77
2023/12/11 11:42:26;;;;;;;16.02;5.63;;;8.80;99.90;;;;;;5032405;28;20045;-77
2023/12/11 11:44:57;;;;;;;19.17;5.20;;;8.80;99.90;;;;;;5017329;28;20045;-77
2023/12/11 11:47:25;;;;;;;21.80;4.93;;;8.80;99.90;;;;;;5032944;28;20050;-76
2023/12/11 11:49:53;;;;;;;20.58;6.13;;;8.80;99.90;;;;;;4996010;28;20037;-76
2023/12/11 11:52:28;;;;;;;23.58;5.93;;;8.80;99.90;;;;;;5029083;28;20045;-76
2023/12/11 11:55:13;;;;;;;16.73;4.20;;;8.80;99.90;;;;;;5015589;28;20050;-76
2023/12/11 11:57:39;;;;;;;22.20;4.70;;;8.80;99.90;;;;;;5032778;28;20108;-76
2023/12/11 12:00:06;;;;;;;19.63;5.43;;;8.80;99.90;;;;;;4998799;28;20044;-76
2023/12/11 12:02:32;;;;;;;14.05;4.57;;;8.80;99.90;;;;;;5016225;28;20502;-76
2023/12/11 12:05:08;;;;;;;20.60;5.38;;;8.80;99.90;;;;;;5015829;28;20037;-76
2023/12/11 12:07:37;;;;;;;20.15;5.50;;;8.80;99.90;;;;;;4999489;28;20042;-76
2023/12/11 12:10:03;;;;;;;22.27;5.95;;;8.80;99.90;;;;;;5032216;28;20120;-76
2023/12/11 12:12:29;;;;;;;24.38;5.80;;;8.80;99.90;;;;;;5015700;28;20052;-76
2023/12/11 12:15:04;;;;;;;15.55;4.25;;;8.80;99.90;;;;;;4999259;28;20041;-76
2023/12/11 12:17:30;;;;;;;16.33;3.70;;;8.70;99.90;;;;;;5014602;28;20038;-76
2023/12/11 12:19:56;;;;;;;19.10;3.60;;;8.60;99.90;;;;;;4995880;28;20231;-76
2023/12/11 12:22:21;;;;;;;24.92;7.28;;;8.60;99.90;;;;;;4999462;28;20041;-77
2023/12/11 12:24:51;;;;;;;29.23;7.28;;;8.60;99.90;;;;;;4999127;28;20138;-77
2023/12/11 12:27:22;;;;;;;22.35;6.35;;;8.50;99.90;;;;;;5013189;28;20406;-77
2023/12/11 12:29:48;;;;;;;33.58;7.60;;;8.50;99.90;;;;;;5013255;28;20049;-77
2023/12/11 12:32:15;;;;;;;27.85;7.10;;;8.50;99.90;;;;;;5027274;28;20038;-77
2023/12/11 12:34:45;;;;;;;12.70;4.63;;;8.50;99.90;;;;;;5014394;28;20069;-76
2023/12/11 12:37:13;;;;;;;14.73;4.60;;;8.50;99.90;;;;;;5031978;28;20029;-77
2023/12/11 12:39:39;;;;;;;20.83;6.97;;;8.50;99.90;;;;;;5012979;28;20190;-77
2023/12/11 12:42:05;;;;;;;22.42;6.55;;;8.50;99.90;;;;;;5020465;28;20573;-77
2023/12/11 12:44:38;;;;;;;29.27;6.07;;;8.50;99.90;;;;;;5014138;28;20108;-76
2023/12/11 12:47:03;;;;;;;;;;;8.50;99.90;;;;;;5015749;28;20041;-77